^^
Meteo Knjazevac Station Historical Data
Daily Summary for June 25, 2022 Units:  Both    English   Metric
Daily Weekly Monthly Yearly Custom
  High: Low: Average:
Temperature: 62.8 °F /  17.1 °C 60.4 °F /  15.8 °C 61.3 °F /  16.3 °C
Dew Point: 59.9 °F /  15.5 °C 57.8 °F /  14.3 °C 58.9 °F /  14.9 °C
Humidity: 94% 88% 92%
Wind Speed: 3mph /  4.8km/h - 1.3mph /  2.1km/h
Wind Gust: 5mph /  8km/h - -
Wind- - West
Pressure: 29.98 in /  1015.1 hPa 29.96 in /  1014.4 hPa -
Precipitation: 0.00 in /  0 mm    
Historical Graphs
 
 
Tabular Data for June 25, 2022
Time Temperature Dew Point Pressure Wind Wind Speed Wind Gust Humidity Rainfall Rate (Hourly) solar Conditions
00:10 62.8 °F /  17.1 °C 59.2 °F /  15.1 °C 29.98in /  1015.1hPa Calm   3mph /  4.8km/h 88% 0.00in /  0mm 0 W/m2
00:20 62.3 °F /  16.8 °C 58.7 °F /  14.8 °C 29.98in /  1015.1hPa SW 2mph /  3.2km/h 3mph /  4.8km/h 88% 0.00in /  0mm 0 W/m2
00:30 61.8 °F /  16.6 °C 58.2 °F /  14.6 °C 29.98in /  1015.1hPa West 1mph /  1.6km/h 4mph /  6.4km/h 88% 0.00in /  0mm 0 W/m2
00:40 61.5 °F /  16.4 °C 58.2 °F /  14.6 °C 29.97in /  1014.8hPa West 1mph /  1.6km/h 3mph /  4.8km/h 89% 0.00in /  0mm 0 W/m2
00:50 61.3 °F /  16.3 °C 58.4 °F /  14.7 °C 29.97in /  1014.8hPa West 2mph /  3.2km/h 4mph /  6.4km/h 90% 0.00in /  0mm 0 W/m2
01:00 61.3 °F /  16.3 °C 58.4 °F /  14.7 °C 29.97in /  1014.8hPa WNW 1mph /  1.6km/h 4mph /  6.4km/h 90% 0.00in /  0mm 0 W/m2
01:10 61.2 °F /  16.2 °C 58.2 °F /  14.6 °C 29.97in /  1014.8hPa WNW 2mph /  3.2km/h 4mph /  6.4km/h 90% 0.00in /  0mm 0 W/m2
01:20 61 °F /  16.1 °C 58 °F /  14.4 °C 29.98in /  1015.1hPa SW 2mph /  3.2km/h 3mph /  4.8km/h 90% 0.00in /  0mm 0 W/m2
01:30 60.4 °F /  15.8 °C 57.8 °F /  14.3 °C 29.98in /  1015.1hPa WSW 2mph /  3.2km/h 5mph /  8km/h 91% 0.00in /  0mm 0 W/m2
01:40 60.4 °F /  15.8 °C 57.8 °F /  14.3 °C 29.97in /  1014.8hPa West 2mph /  3.2km/h 4mph /  6.4km/h 91% 0.00in /  0mm 0 W/m2
01:50 60.4 °F /  15.8 °C 58.4 °F /  14.7 °C 29.98in /  1015.1hPa West 2mph /  3.2km/h 4mph /  6.4km/h 93% 0.00in /  0mm 0 W/m2
02:00 60.4 °F /  15.8 °C 58.4 °F /  14.7 °C 29.98in /  1015.1hPa West 1mph /  1.6km/h 4mph /  6.4km/h 93% 0.00in /  0mm 0 W/m2
02:10 60.6 °F /  15.9 °C 58.6 °F /  14.8 °C 29.97in /  1014.8hPa West 1mph /  1.6km/h 2mph /  3.2km/h 93% 0.00in /  0mm 0 W/m2
02:20 60.6 °F /  15.9 °C 58.6 °F /  14.8 °C 29.98in /  1015.1hPa West 2mph /  3.2km/h 4mph /  6.4km/h 93% 0.00in /  0mm 0 W/m2
02:30 60.8 °F /  16 °C 58.8 °F /  14.9 °C 29.98in /  1015.1hPa WNW 1mph /  1.6km/h 5mph /  8km/h 93% 0.00in /  0mm 0 W/m2
02:40 61 °F /  16.1 °C 58.6 °F /  14.8 °C 29.97in /  1014.8hPa Calm   4mph /  6.4km/h 92% 0.00in /  0mm 0 W/m2
02:50 61.3 °F /  16.3 °C 59.3 °F /  15.2 °C 29.98in /  1015.1hPa Calm   3mph /  4.8km/h 93% 0.00in /  0mm 0 W/m2
03:00 61.3 °F /  16.3 °C 58.7 °F /  14.8 °C 29.98in /  1015.1hPa WNW 1mph /  1.6km/h 2mph /  3.2km/h 91% 0.00in /  0mm 0 W/m2
03:10 61.3 °F /  16.3 °C 59.3 °F /  15.2 °C 29.98in /  1015.1hPa WNW 2mph /  3.2km/h 3mph /  4.8km/h 93% 0.00in /  0mm 0 W/m2
03:20 61.4 °F /  16.3 °C 59.4 °F /  15.2 °C 29.97in /  1014.8hPa Calm   2mph /  3.2km/h 93% 0.00in /  0mm 0 W/m2
03:30 61.6 °F /  16.4 °C 59.6 °F /  15.3 °C 29.97in /  1014.8hPa West 1mph /  1.6km/h 2mph /  3.2km/h 93% 0.00in /  0mm 0 W/m2
03:50 61.5 °F /  16.4 °C 59.5 °F /  15.3 °C 29.96in /  1014.4hPa West 1mph /  1.6km/h 3mph /  4.8km/h 93% 0.00in /  0mm 0 W/m2
04:10 61.7 °F /  16.5 °C 59.7 °F /  15.4 °C 29.97in /  1014.8hPa West 2mph /  3.2km/h 5mph /  8km/h 93% 0.00in /  0mm 0 W/m2
04:20 61.7 °F /  16.5 °C 59.7 °F /  15.4 °C 29.97in /  1014.8hPa NW 1mph /  1.6km/h 3mph /  4.8km/h 93% 0.00in /  0mm 0 W/m2
04:30 61.5 °F /  16.4 °C 59.8 °F /  15.4 °C 29.97in /  1014.8hPa WSW 2mph /  3.2km/h 2mph /  3.2km/h 94% 0.00in /  0mm 0 W/m2
04:40 61.5 °F /  16.4 °C 59.8 °F /  15.4 °C 29.97in /  1014.8hPa WNW 1mph /  1.6km/h 3mph /  4.8km/h 94% 0.00in /  0mm 0 W/m2
04:50 61.5 °F /  16.4 °C 59.8 °F /  15.4 °C 29.97in /  1014.8hPa WNW 2mph /  3.2km/h 4mph /  6.4km/h 94% 0.00in /  0mm 2 W/m2
05:00 61.5 °F /  16.4 °C 59.8 °F /  15.4 °C 29.97in /  1014.8hPa West 3mph /  4.8km/h 5mph /  8km/h 94% 0.00in /  0mm 4 W/m2
05:10 61.6 °F /  16.4 °C 59.9 °F /  15.5 °C 29.98in /  1015.1hPa WNW 1mph /  1.6km/h 4mph /  6.4km/h 94% 0.00in /  0mm 9 W/m2
Knjazevac, Serbia
Compliments of Weather Underground - 2 mb